Cloverport, Kentucky
Current Conditions -  °F | °C
As of 7:56 AM on Friday 24 Oct 2014 (Local Time) from KOWB Reporting Station
Haze Haze  
Wind Chill: 47°   Ceiling: 3800
Heat Index: 47°   Visibility: 6mi
Dew Point: 45°   Wind: 3mph
Humidity: 93%   Direction: 150°SSE
Pressure: 30.14"   Gusts: NA
Location:  37.83°N, 86.63°W
Report Text: KOWB 241256Z 15003KT 6SM BR OVC038 08/07 A3014 RMK AO2 T00830072 SLP206
Loading
Personal Weather Stations






























Interactive Weather Map
Tropical Storm Tracking
New forecast layout! Learn more

10-Day Weather Forecast

Advertisements
Track Severe Weather on mobile